Time;durP1;ratioP1;P1;durP2;ratioP2;P2;SDS_P1;SDS_P2;PMS_P1;PMS_P2;Temp;Humidity;BMP_temperature;BMP_pressure;BME280_temperature;BME280_humidity;BME280_pressure;Samples;Min_cycle;Max_cycle;Signal;HPM_P1;HPM_P2
2021/04/04 00:00:07;;;;;;;20.25;7.00;;;6.20;76.30;;;7.50;58.14;101599.63;5084301;28;20036;-85
2021/04/04 00:02:38;;;;;;;22.92;7.28;;;6.20;76.50;;;7.48;58.66;101598.03;5070907;28;20463;-84
2021/04/04 00:05:08;;;;;;;18.58;5.88;;;6.20;76.90;;;7.41;59.09;101598.56;5071329;28;20047;-85
2021/04/04 00:07:36;;;;;;;21.20;7.45;;;6.30;77.20;;;7.41;59.60;101604.00;5071560;28;20075;-84
2021/04/04 00:10:04;;;;;;;21.70;6.75;;;6.30;77.20;;;7.41;59.93;101600.44;5073745;28;20093;-84
2021/04/04 00:12:31;;;;;;;34.72;7.03;;;6.30;77.80;;;7.47;60.03;101599.03;5074921;28;20059;-85
2021/04/04 00:14:58;;;;;;;23.27;6.47;;;6.40;77.30;;;7.49;60.17;101597.03;5074506;28;20550;-85
2021/04/04 00:17:25;;;;;;;22.88;6.07;;;6.40;77.30;;;7.53;59.19;101590.34;5074826;28;20052;-84
2021/04/04 00:19:51;;;;;;;29.95;6.50;;;6.50;76.70;;;7.53;59.53;101582.22;5073573;28;20060;-84
2021/04/04 00:22:18;;;;;;;23.13;6.47;;;6.70;77.00;;;7.56;59.34;101581.94;5074761;28;20037;-84
2021/04/04 00:24:46;;;;;;;22.13;5.72;;;6.60;75.80;;;7.58;59.27;101582.66;5074612;28;20123;-84
2021/04/04 00:27:13;;;;;;;23.88;6.30;;;6.60;76.30;;;7.57;59.38;101583.66;5075231;28;20059;-84
2021/04/04 00:29:39;;;;;;;23.63;5.20;;;6.70;75.90;;;7.58;59.11;101588.94;5075028;28;20080;-84
2021/04/04 00:32:06;;;;;;;24.58;6.22;;;6.70;75.70;;;7.60;58.39;101586.94;5074771;28;20086;-84
2021/04/04 00:34:33;;;;;;;25.42;5.72;;;6.70;75.20;;;7.62;59.52;101584.09;5075174;28;20052;-84
2021/04/04 00:37:00;;;;;;;22.42;5.43;;;6.80;75.70;;;7.62;59.55;101582.25;5074211;28;20048;-84
2021/04/04 00:39:28;;;;;;;24.13;5.90;;;6.80;75.50;;;7.65;58.56;101586.50;5074536;28;20048;-84
2021/04/04 00:41:55;;;;;;;20.90;6.55;;;6.90;74.60;;;7.62;58.98;101586.81;5074295;28;20036;-84
2021/04/04 00:44:22;;;;;;;21.95;5.80;;;7.10;74.40;;;7.63;58.48;101575.84;5074051;28;20132;-84
2021/04/04 00:46:49;;;;;;;30.50;5.93;;;6.90;74.00;;;7.65;58.27;101575.69;5074485;28;20129;-85
2021/04/04 00:49:16;;;;;;;32.00;6.50;;;7.00;74.00;;;7.68;58.00;101572.69;5074009;28;20048;-85
2021/04/04 00:51:43;;;;;;;25.23;6.22;;;7.00;73.10;;;7.69;58.39;101568.13;5073808;28;20443;-84
2021/04/04 00:54:16;;;;;;;25.20;6.07;;;7.00;74.00;;;7.71;59.25;101572.44;5072095;28;20144;-85
2021/04/04 00:56:44;;;;;;;26.77;5.70;;;7.00;74.50;;;7.71;58.52;101564.31;5072810;28;20057;-84
2021/04/04 00:59:14;;;;;;;21.38;5.57;;;7.00;74.10;;;7.72;58.70;101566.00;5073633;28;20040;-84
2021/04/04 01:01:41;;;;;;;33.13;7.75;;;7.10;73.70;;;7.70;58.19;101559.88;5088021;28;20131;-84
2021/04/04 01:04:08;;;;;;;24.33;5.88;;;7.10;73.40;;;7.71;58.47;101561.59;5093614;28;20508;-84
2021/04/04 01:06:35;;;;;;;25.58;6.35;;;7.10;73.80;;;7.73;57.27;101558.72;5094276;28;20039;-84
2021/04/04 01:09:02;;;;;;;26.70;5.45;;;7.10;72.60;;;7.72;57.37;101563.28;5094370;28;20069;-84
2021/04/04 01:11:40;;;;;;;25.58;5.75;;;7.10;72.50;;;7.74;57.63;101564.00;5093858;28;20164;-85
2021/04/04 01:14:21;;;;;;;23.67;5.63;;;7.10;73.30;;;7.74;57.87;101560.44;5093603;28;20047;-84
2021/04/04 01:16:53;;;;;;;25.45;5.38;;;7.00;73.20;;;7.75;58.12;101565.72;5094028;28;20052;-84
2021/04/04 01:19:39;;;;;;;23.77;5.80;;;7.10;73.40;;;7.70;58.07;101570.72;5094225;28;20047;-84
2021/04/04 01:22:26;;;;;;;25.48;5.47;;;7.10;73.50;;;7.73;58.32;101569.56;5092697;28;20040;-85
2021/04/04 01:25:04;;;;;;;28.48;5.90;;;7.10;73.30;;;7.70;58.40;101578.84;5093201;28;20047;-84
2021/04/04 01:27:45;;;;;;;24.50;4.90;;;7.10;73.20;;;7.69;57.90;101574.44;5092018;28;20052;-84
2021/04/04 01:30:15;;;;;;;23.92;6.10;;;7.10;72.90;;;7.73;57.56;101573.16;5094122;28;20046;-84
2021/04/04 01:32:45;;;;;;;21.27;5.78;;;7.10;72.30;;;7.74;57.50;101569.44;5092918;28;20044;-84
2021/04/04 01:35:15;;;;;;;22.55;5.60;;;7.10;72.60;;;7.77;57.34;101579.16;5093658;28;20051;-84
2021/04/04 01:37:45;;;;;;;27.08;6.22;;;7.20;71.70;;;7.74;56.70;101569.44;5093477;28;20044;-84
2021/04/04 01:40:17;;;;;;;27.63;5.43;;;7.20;71.40;;;7.79;56.82;101574.44;5093708;28;20044;-84
2021/04/04 01:42:46;;;;;;;34.40;5.53;;;7.20;71.00;;;7.77;57.46;101569.16;5093281;28;20044;-84
2021/04/04 01:45:15;;;;;;;29.15;5.70;;;7.30;71.60;;;7.75;57.57;101571.16;5093064;28;20139;-84
2021/04/04 01:47:43;;;;;;;19.65;4.97;;;7.20;72.00;;;7.73;57.23;101578.56;5092218;28;20056;-85
2021/04/04 01:50:11;;;;;;;25.08;5.35;;;7.20;72.00;;;7.75;57.16;101573.84;5093596;28;20043;-84
2021/04/04 01:52:39;;;;;;;29.33;5.20;;;7.20;72.10;;;7.76;56.92;101572.84;5093045;28;20117;-85
2021/04/04 01:55:08;;;;;;;20.70;5.30;;;7.30;71.00;;;7.79;56.32;101569.03;5093366;28;20319;-84
2021/04/04 01:57:36;;;;;;;20.75;5.22;;;7.30;71.00;;;7.80;56.64;101576.97;5092928;28;20043;-85
2021/04/04 02:00:12;;;;;;;28.48;5.68;;;7.30;70.80;;;7.81;56.55;101572.44;5092969;28;20421;-84
2021/04/04 02:02:40;;;;;;;25.75;5.38;;;7.30;70.60;;;7.79;57.14;101572.56;5092845;28;20055;-84
2021/04/04 02:05:09;;;;;;;23.20;6.20;;;7.30;71.00;;;7.77;56.70;101565.59;5092404;28;20488;-84
2021/04/04 02:07:41;;;;;;;17.98;5.13;;;7.30;71.10;;;7.78;56.79;101565.44;5092719;28;20048;-84
2021/04/04 02:10:11;;;;;;;26.30;5.30;;;7.20;71.10;;;7.78;56.94;101560.00;5092773;28;20097;-84
2021/04/04 02:12:38;;;;;;;29.63;5.85;;;7.20;71.20;;;7.80;56.70;101558.00;5092361;28;20047;-84
2021/04/04 02:15:09;;;;;;;25.33;5.32;;;7.20;71.00;;;7.81;56.57;101543.47;5092349;28;20496;-84
2021/04/04 02:17:39;;;;;;;26.92;6.07;;;7.20;71.50;;;7.79;56.75;101545.47;5092718;28;20048;-85
2021/04/04 02:20:10;;;;;;;21.33;5.70;;;7.30;71.00;;;7.80;56.36;101538.19;5092490;28;20063;-84
2021/04/04 02:22:39;;;;;;;26.48;6.57;;;7.30;71.00;;;7.82;56.82;101542.50;5092303;28;20796;-84
2021/04/04 02:25:08;;;;;;;26.08;5.55;;;7.30;71.00;;;7.79;56.94;101545.47;5092585;28;20071;-84
2021/04/04 02:27:35;;;;;;;25.20;5.97;;;7.20;71.20;;;7.83;56.85;101543.34;5091251;28;20051;-84
2021/04/04 02:30:04;;;;;;;17.05;5.50;;;7.30;71.20;;;7.81;57.31;101538.06;5092599;28;20043;-84
2021/04/04 02:32:36;;;;;;;33.70;6.03;;;7.20;72.00;;;7.81;57.34;101538.06;5091229;28;20567;-84
2021/04/04 02:35:06;;;;;;;20.77;4.57;;;7.30;71.70;;;7.78;56.50;101537.47;5091811;28;20067;-85
2021/04/04 02:37:37;;;;;;;22.77;5.20;;;7.20;70.90;;;7.80;55.63;101536.34;5092288;28;20082;-85
2021/04/04 02:40:09;;;;;;;19.83;4.93;;;7.30;69.70;;;7.76;56.42;101529.50;5092186;28;20098;-85
2021/04/04 02:42:38;;;;;;;27.33;5.50;;;7.30;70.60;;;7.73;55.87;101527.09;5092010;28;20900;-84
2021/04/04 02:45:08;;;;;;;29.15;6.05;;;7.30;70.20;;;7.78;55.75;101534.78;5092016;28;20044;-84
2021/04/04 02:47:43;;;;;;;23.08;4.95;;;7.30;69.80;;;7.79;55.66;101539.22;5091498;28;20071;-84
2021/04/04 02:50:12;;;;;;;25.23;5.00;;;7.30;69.80;;;7.77;56.71;101536.63;5091908;28;20048;-84
2021/04/04 02:52:44;;;;;;;27.35;5.25;;;7.30;71.20;;;7.80;55.99;101535.50;5091711;28;20090;-85
2021/04/04 02:55:13;;;;;;;21.75;5.20;;;7.30;70.20;;;7.85;55.01;101540.50;5091759;28;20503;-85
2021/04/04 02:57:40;;;;;;;25.63;4.60;;;7.40;68.70;;;7.82;56.05;101539.78;5091611;28;20076;-85
2021/04/04 03:00:09;;;;;;;25.08;5.28;;;7.30;69.70;;;7.81;55.65;101539.94;5090827;28;20565;-84
2021/04/04 03:02:38;;;;;;;27.30;5.35;;;7.30;70.10;;;7.79;56.22;101540.06;5091507;28;20082;-85
2021/04/04 03:05:09;;;;;;;20.35;4.43;;;7.30;70.40;;;7.78;55.08;101543.75;5091358;28;20419;-84
2021/04/04 03:07:40;;;;;;;20.33;4.60;;;7.30;68.90;;;7.76;55.70;101543.03;5091825;28;20036;-84
2021/04/04 03:10:09;;;;;;;19.65;5.03;;;7.30;69.00;;;7.78;55.73;101538.34;5091547;28;20514;-85
2021/04/04 03:12:37;;;;;;;26.13;4.70;;;7.30;69.30;;;7.80;55.34;101541.75;5090053;28;20044;-84
2021/04/04 03:15:08;;;;;;;22.65;4.70;;;7.30;69.30;;;7.80;55.17;101541.75;5091397;28;20560;-85
2021/04/04 03:17:39;;;;;;;27.05;4.57;;;7.30;69.30;;;7.80;55.33;101540.91;5089980;28;20405;-85
2021/04/04 03:20:09;;;;;;;22.33;5.38;;;7.30;69.40;;;7.80;54.95;101540.91;5091587;28;20040;-85
2021/04/04 03:22:40;;;;;;;23.65;4.88;;;7.40;68.60;;;7.82;54.15;101536.19;5091015;28;20032;-84
2021/04/04 03:25:10;;;;;;;20.85;4.57;;;7.40;68.30;;;7.82;55.34;101534.38;5091303;28;20044;-84
2021/04/04 03:27:39;;;;;;;22.05;5.20;;;7.40;68.60;;;7.84;54.23;101536.91;5091667;28;20068;-84
2021/04/04 03:30:09;;;;;;;21.15;5.10;;;7.50;68.00;;;7.82;54.64;101539.78;5091409;28;20412;-84
2021/04/04 03:32:37;;;;;;;24.50;5.00;;;7.40;68.20;;;7.81;54.95;101548.91;5091404;28;20044;-84
2021/04/04 03:35:05;;;;;;;25.33;6.40;;;7.40;68.90;;;7.83;54.81;101544.19;5091361;28;20056;-84
2021/04/04 03:37:33;;;;;;;26.85;5.75;;;7.40;68.10;;;7.85;55.00;101540.50;5091205;28;20055;-85
2021/04/04 03:40:00;;;;;;;16.67;5.07;;;7.40;68.60;;;7.86;54.27;101544.91;5091214;28;20040;-84
2021/04/04 03:42:28;;;;;;;30.10;5.85;;;7.40;67.60;;;7.83;54.65;101533.34;5091315;28;20043;-84
2021/04/04 03:44:58;;;;;;;20.17;5.15;;;7.40;68.50;;;7.82;54.36;101534.38;5093715;28;20075;-85
2021/04/04 03:47:25;;;;;;;18.92;5.38;;;7.40;68.10;;;7.82;54.36;101537.09;5095044;28;20089;-84
2021/04/04 03:49:54;;;;;;;25.65;6.15;;;7.40;68.30;;;7.85;54.81;101532.38;5095562;28;20096;-84
2021/04/04 03:52:22;;;;;;;22.02;5.47;;;7.40;68.10;;;7.83;54.07;101527.09;5095053;28;20047;-84
2021/04/04 03:54:51;;;;;;;24.80;5.78;;;7.40;67.50;;;7.84;54.87;101523.34;5094993;28;20079;-85
2021/04/04 03:57:21;;;;;;;17.38;5.53;;;7.50;68.00;;;7.85;54.49;101522.38;5095150;28;20052;-84
2021/04/04 03:59:49;;;;;;;27.65;4.75;;;7.40;68.30;;;7.85;54.21;101516.97;5095181;28;20048;-85
2021/04/04 04:02:20;;;;;;;22.88;5.10;;;7.40;68.20;;;7.85;53.68;101514.25;5095420;28;20044;-84
2021/04/04 04:04:47;;;;;;;19.73;5.13;;;7.40;67.40;;;7.85;54.12;101513.41;5095096;28;20188;-85
2021/04/04 04:07:15;;;;;;;16.88;3.83;;;7.40;67.60;;;7.84;54.87;101509.81;5095681;28;20044;-84
2021/04/04 04:09:42;;;;;;;18.08;5.18;;;7.40;68.40;;;7.81;54.70;101515.53;5095204;28;20051;-84
2021/04/04 04:12:10;;;;;;;24.15;5.78;;;7.40;68.10;;;7.80;55.72;101511.09;5094798;28;20048;-84
2021/04/04 04:14:37;;;;;;;20.10;5.15;;;7.30;69.00;;;7.81;55.12;101510.97;5094310;28;20063;-84
2021/04/04 04:17:06;;;;;;;22.98;5.75;;;7.40;68.50;;;7.78;55.06;101505.81;5094742;28;20044;-84
2021/04/04 04:19:33;;;;;;;20.65;5.28;;;7.40;68.90;;;7.78;56.65;101502.25;5094710;28;20101;-85
2021/04/04 04:22:00;;;;;;;17.48;4.25;;;7.30;70.00;;;7.82;56.89;101507.28;5094876;28;20066;-84
2021/04/04 04:24:28;;;;;;;29.08;5.05;;;7.40;70.30;;;7.78;56.22;101497.69;5094318;28;20036;-84
2021/04/04 04:26:56;;;;;;;19.85;4.38;;;7.30;70.40;;;7.78;56.51;101494.13;5094772;28;20097;-85
2021/04/04 04:29:23;;;;;;;22.02;4.47;;;7.30;70.50;;;7.72;57.54;101494.69;5094602;28;20508;-85
2021/04/04 04:31:56;;;;;;;21.92;4.65;;;7.30;71.10;;;7.71;56.61;101496.56;5094535;28;20874;-84
2021/04/04 04:34:24;;;;;;;19.15;4.30;;;7.30;70.80;;;7.72;56.85;101495.56;5094175;28;20044;-84
2021/04/04 04:36:53;;;;;;;23.25;4.88;;;7.30;70.80;;;7.72;57.39;101494.69;5094511;28;20052;-84
2021/04/04 04:39:21;;;;;;;23.17;4.60;;;7.30;71.30;;;7.72;56.71;101490.13;5094342;28;20450;-84
2021/04/04 04:41:51;;;;;;;26.67;4.93;;;7.30;70.80;;;7.77;56.82;101497.84;5094581;28;20040;-84
2021/04/04 04:44:23;;;;;;;17.17;4.70;;;7.30;70.80;;;7.75;57.12;101495.28;5094201;28;20062;-84
2021/04/04 04:46:50;;;;;;;22.77;4.88;;;7.30;71.00;;;7.77;57.00;101493.28;5094435;28;20048;-85
2021/04/04 04:49:18;;;;;;;22.15;4.88;;;7.30;70.80;;;7.75;56.74;101487.16;5094348;28;20036;-84
2021/04/04 04:51:47;;;;;;;20.70;4.88;;;7.30;71.00;;;7.72;57.27;101495.56;5094495;28;20040;-85
2021/04/04 04:54:14;;;;;;;18.83;4.70;;;7.30;71.60;;;7.74;57.16;101487.28;5094295;28;20401;-84
2021/04/04 04:56:42;;;;;;;24.27;5.53;;;7.30;71.40;;;7.78;56.94;101492.25;5093437;28;20036;-85
2021/04/04 04:59:10;;;;;;;23.63;5.80;;;7.30;71.00;;;7.79;57.24;101490.44;5094210;28;20044;-85
2021/04/04 05:01:42;;;;;;;16.40;4.90;;;7.30;71.40;;;7.80;57.35;101492.13;5094540;28;20123;-84
2021/04/04 05:04:09;;;;;;;16.88;4.25;;;7.30;71.70;;;7.78;57.50;101484.13;5093491;28;20508;-84
2021/04/04 05:06:37;;;;;;;25.45;5.55;;;7.30;71.70;;;7.77;57.60;101490.56;5094418;28;20513;-84
2021/04/04 05:09:07;;;;;;;18.85;5.40;;;7.30;71.20;;;7.73;57.16;101486.44;5093604;28;20040;-84
2021/04/04 05:11:39;;;;;;;26.13;5.28;;;7.30;70.90;;;7.78;57.22;101492.25;5093711;28;20500;-85
2021/04/04 05:14:09;;;;;;;19.80;5.30;;;7.30;71.10;;;7.74;56.92;101487.28;5093269;28;20451;-85
2021/04/04 05:16:36;;;;;;;18.60;5.85;;;7.30;71.40;;;7.71;56.25;101488.44;5091991;28;20043;-85
2021/04/04 05:19:07;;;;;;;19.20;5.88;;;7.30;70.60;;;7.72;56.64;101494.69;5093865;28;20036;-84
2021/04/04 05:21:34;;;;;;;28.05;5.43;;;7.30;70.60;;;7.70;56.40;101494.84;5093789;28;20044;-85
2021/04/04 05:24:05;;;;;;;26.60;5.68;;;7.30;70.00;;;7.72;56.28;101494.69;5092755;28;20081;-84
2021/04/04 05:26:34;;;;;;;20.83;5.82;;;7.30;70.40;;;7.72;56.34;101492.00;5091965;28;20491;-85
2021/04/04 05:29:02;;;;;;;18.70;6.00;;;7.30;69.90;;;7.73;55.52;101493.69;5093284;28;20074;-86
2021/04/04 05:31:29;;;;;;;22.40;6.65;;;7.30;69.30;;;7.72;55.97;101494.69;5095176;28;20052;-86
2021/04/04 05:33:57;;;;;;;15.32;6.22;;;7.30;69.90;;;7.70;56.61;101492.13;5093182;28;20043;-85
2021/04/04 05:36:24;;;;;;;17.08;6.07;;;7.30;70.50;;;7.70;56.55;101491.28;5092674;28;20480;-83
2021/04/04 05:38:56;;;;;;;20.85;6.97;;;7.30;70.40;;;7.70;56.68;101497.53;5094660;28;20044;-84
2021/04/04 05:41:25;;;;;;;22.48;7.05;;;7.30;70.30;;;7.71;56.09;101499.28;5093405;28;20606;-84
2021/04/04 05:43:58;;;;;;;22.52;7.88;;;7.30;69.80;;;7.70;56.08;101497.53;5098073;28;20044;-84
2021/04/04 05:46:31;;;;;;;25.77;9.05;;;7.30;70.00;;;7.70;56.41;101489.41;5099877;28;20037;-84
2021/04/04 05:49:04;;;;;;;20.15;9.13;;;7.30;69.80;;;7.70;56.23;101484.00;5097622;28;20469;-84
2021/04/04 05:51:47;;;;;;;22.70;8.05;;;7.30;69.80;;;7.73;55.54;101486.44;5095666;28;20453;-83
2021/04/04 05:55:05;;;;;;;25.02;7.88;;;7.30;69.40;;;7.76;56.62;101491.56;5094100;28;20040;-84
2021/04/04 05:57:38;;;;;;;21.30;8.48;;;7.30;70.00;;;7.75;56.52;101488.97;5062575;28;20059;-84
2021/04/04 06:00:09;;;;;;;21.83;6.78;;;7.30;70.50;;;7.75;56.42;101483.56;5093024;28;20039;-85
2021/04/04 06:03:43;;;;;;;24.70;7.82;;;7.30;70.40;;;7.73;56.14;101486.44;5089012;28;20036;-85
2021/04/04 06:07:03;;;;;;;23.73;7.27;;;7.30;70.20;;;7.76;56.22;101486.13;5065738;28;20060;-85
2021/04/04 06:09:56;;;;;;;19.70;6.70;;;7.40;69.90;;;7.76;56.12;101478.00;5092072;28;20047;-85
2021/04/04 06:12:40;;;;;;;20.30;7.45;;;7.40;69.80;;;7.76;56.39;101480.72;5090943;28;20039;-84
2021/04/04 06:15:24;;;;;;;21.00;7.78;;;7.40;70.10;;;7.78;56.58;101483.28;5094424;28;20048;-84
2021/04/04 06:18:05;;;;;;;24.08;6.45;;;7.40;70.10;;;7.76;56.27;101480.72;5094723;28;20047;-84
2021/04/04 06:20:44;;;;;;;26.30;6.25;;;7.40;70.40;;;7.75;57.03;101473.59;5092390;28;20051;-83
2021/04/04 06:23:21;;;;;;;26.63;6.68;;;7.40;70.40;;;7.77;57.10;101484.31;5091457;28;20048;-84
2021/04/04 06:26:08;;;;;;;29.10;5.82;;;7.40;70.60;;;7.76;56.84;101483.44;5093373;28;20047;-84
2021/04/04 06:28:50;;;;;;;24.02;7.72;;;7.40;70.40;;;7.77;56.75;101482.44;5092585;28;20040;-84
2021/04/04 06:31:22;;;;;;;22.92;11.48;;;7.40;70.40;;;7.79;56.92;101482.31;5092297;28;20051;-84
2021/04/04 06:33:58;;;;;;;21.05;8.00;;;7.40;70.50;;;7.77;57.16;101482.44;5092850;28;20058;-82
2021/04/04 06:36:43;;;;;;;19.85;5.97;;;7.50;70.50;;;7.78;56.57;101481.44;5093607;28;20048;-83
2021/04/04 06:39:40;;;;;;;21.42;5.40;;;7.40;70.40;;;7.77;56.36;101484.31;5091914;28;20156;-83
2021/04/04 06:42:18;;;;;;;16.70;4.28;;;7.40;70.30;;;7.81;57.01;101477.59;5092899;28;20093;-86
2021/04/04 06:45:18;;;;;;;16.00;4.53;;;7.50;70.50;;;7.84;56.81;101477.28;5091674;28;20051;-83
2021/04/04 06:48:04;;;;;;;13.85;4.10;;;7.50;70.50;;;7.82;57.86;101482.88;5092386;28;20056;-87
2021/04/04 06:50:37;;;;;;;17.92;4.80;;;7.50;71.30;;;7.80;57.63;101479.44;5092033;28;20055;-85
2021/04/04 06:53:22;;;;;;;14.48;3.65;;;7.50;70.90;;;7.85;57.42;101480.88;5091103;28;20516;-86
2021/04/04 06:56:03;;;;;;;20.58;3.70;;;7.50;71.20;;;7.78;57.64;101486.84;5093004;28;20139;-84
2021/04/04 06:58:57;;;;;;;17.98;4.75;;;7.50;71.00;;;7.76;57.72;101478.00;5093193;28;20068;-84
2021/04/04 07:01:36;;;;;;;15.65;3.65;;;7.60;71.20;;;7.78;57.69;101480.56;5091395;28;20055;-85
2021/04/04 07:04:11;;;;;;;17.40;4.20;;;7.60;71.00;;;7.82;58.25;101488.31;5091996;28;20040;-85
2021/04/04 07:07:17;;;;;;;10.93;3.83;;;7.60;71.20;;;7.84;58.22;101496.25;5092734;28;20048;-84
2021/04/04 07:10:05;;;;;;;13.05;4.38;;;7.60;71.00;;;7.86;57.99;101491.56;5092948;28;20044;-85
2021/04/04 07:12:54;;;;;;;12.70;4.38;;;7.60;71.10;;;7.87;57.84;101493.28;5093440;28;20040;-84
2021/04/04 07:15:39;;;;;;;21.35;5.07;;;7.60;71.10;;;7.89;57.39;101493.13;5093588;28;20062;-84
2021/04/04 07:18:46;;;;;;;14.55;4.10;;;7.60;70.60;;;7.91;57.22;101489.28;5092835;28;20068;-84
2021/04/04 07:22:10;;;;;;;13.50;3.50;;;7.60;70.70;;;7.89;57.76;101490.44;5094071;28;20408;-84
2021/04/04 07:24:54;;;;;;;12.93;3.30;;;7.70;70.70;;;7.89;57.40;101485.00;5091257;28;20052;-83
2021/04/04 07:27:42;;;;;;;10.02;3.80;;;7.70;70.90;;;7.87;57.17;101476.16;5095744;28;20047;-84
2021/04/04 07:30:33;;;;;;;9.77;3.88;;;7.60;70.50;;;7.87;58.34;101481.59;5094551;28;20498;-84
2021/04/04 07:33:17;;;;;;;17.40;3.42;;;7.60;71.10;;;7.90;57.74;101482.16;5092797;28;20054;-84
2021/04/04 07:35:59;;;;;;;9.68;3.25;;;7.60;71.40;;;7.93;57.88;101481.00;5093034;28;20036;-84
2021/04/04 07:38:31;;;;;;;;;;;7.70;70.80;;;7.90;58.26;101482.16;5083623;28;20097;-82
2021/04/04 07:41:08;;;;;;;11.88;3.40;;;7.70;71.10;;;7.85;57.52;101484.44;5096458;28;19924;-82
2021/04/04 07:43:46;;;;;;;10.32;3.35;;;7.70;70.60;;;7.89;57.88;101482.31;5095728;28;20052;-84
2021/04/04 07:46:22;;;;;;;9.25;3.10;;;7.70;71.00;;;7.88;58.14;101488.72;5096050;28;20127;-83
2021/04/04 07:49:02;;;;;;;8.98;2.83;;;7.70;71.10;;;7.84;58.14;101482.72;5096731;28;20036;-83
2021/04/04 07:51:34;;;;;;;12.93;3.13;;;7.70;71.20;;;7.90;58.05;101481.28;5096330;28;20056;-83
2021/04/04 07:54:04;;;;;;;11.43;3.15;;;7.70;71.30;;;7.95;57.28;101488.00;5094202;28;20404;-84
2021/04/04 07:56:42;;;;;;;10.00;2.58;;;7.80;70.00;;;7.97;57.20;101487.84;5093560;28;20140;-84
2021/04/04 07:59:17;;;;;;;9.43;2.85;;;7.70;71.00;;;7.98;57.91;101489.56;5093855;28;20580;-84
2021/04/04 08:01:53;;;;;;;9.85;2.80;;;7.80;71.40;;;7.98;58.45;101482.28;5094610;28;20040;-84
2021/04/04 08:04:30;;;;;;;10.73;2.78;;;7.80;71.10;;;7.95;58.23;101484.44;5093870;28;20040;-85
2021/04/04 08:07:02;;;;;;;13.55;2.80;;;7.80;71.30;;;7.97;58.86;101482.44;5087488;28;20777;-86
2021/04/04 08:09:41;;;;;;;9.73;3.40;;;7.80;71.70;;;7.96;59.13;101484.28;5089643;28;20395;-84
2021/04/04 08:12:23;;;;;;;13.75;3.95;;;7.80;71.70;;;7.96;58.69;101491.56;5071133;28;20060;-85
2021/04/04 08:15:03;;;;;;;10.23;3.05;;;7.80;71.40;;;8.01;58.06;101487.44;5079988;28;20051;-84
2021/04/04 08:17:30;;;;;;;12.00;3.05;;;7.90;70.90;;;8.03;57.23;101493.56;5088987;28;20051;-85
2021/04/04 08:20:07;;;;;;;9.60;2.55;;;7.90;69.60;;;8.01;57.80;101483.84;5091096;28;20075;-85
2021/04/04 08:22:42;;;;;;;7.35;2.70;;;7.80;70.20;;;8.03;58.06;101496.28;5092077;28;20040;-83
2021/04/04 08:25:16;;;;;;;13.85;3.00;;;7.90;71.30;;;8.01;58.70;101494.69;5090508;28;20040;-82
2021/04/04 08:27:53;;;;;;;13.13;3.42;;;7.90;71.60;;;8.01;58.45;101501.00;5089494;28;20035;-83
2021/04/04 08:30:29;;;;;;;9.65;3.08;;;7.90;71.10;;;7.99;58.97;101502.13;5090103;28;20048;-83
2021/04/04 08:33:02;;;;;;;12.07;3.92;;;7.90;71.50;;;8.01;58.61;101494.69;5095101;28;20040;-83
2021/04/04 08:35:36;;;;;;;13.70;3.13;;;7.90;71.30;;;8.05;58.96;101490.69;5076526;28;20063;-83
2021/04/04 08:38:09;;;;;;;10.05;3.30;;;7.90;71.30;;;8.05;59.49;101490.69;5076271;28;20048;-83
2021/04/04 08:40:38;;;;;;;9.45;2.70;;;8.00;71.70;;;8.06;59.04;101484.28;5076400;28;20492;-82
2021/04/04 08:43:06;;;;;;;10.93;2.70;;;8.00;71.10;;;8.08;58.50;101495.84;5090422;28;20050;-83
2021/04/04 08:45:40;;;;;;;12.10;2.75;;;8.00;70.50;;;8.08;58.26;101498.53;5086656;28;20032;-84
2021/04/04 08:48:08;;;;;;;10.23;2.92;;;8.00;70.80;;;8.05;58.53;101496.09;5095140;28;20156;-86
2021/04/04 08:50:41;;;;;;;8.85;2.80;;;8.10;71.00;;;8.07;58.43;101502.25;5094788;28;20040;-83
2021/04/04 08:53:28;;;;;;;10.68;3.33;;;8.10;70.60;;;8.12;58.69;101504.53;5088198;28;20032;-83
2021/04/04 08:55:55;;;;;;;12.05;3.30;;;8.10;71.10;;;8.14;57.09;101506.09;5074358;28;20094;-83
2021/04/04 08:58:34;;;;;;;11.68;2.60;;;8.10;69.70;;;8.13;58.66;101503.53;5074050;28;20040;-84
2021/04/04 09:01:09;;;;;;;9.75;2.50;;;8.10;70.30;;;8.11;57.99;101498.28;5090752;28;20052;-84
2021/04/04 09:03:41;;;;;;;8.55;2.40;;;8.10;69.90;;;8.13;58.50;101488.13;5093885;28;20657;-84
2021/04/04 09:06:10;;;;;;;7.00;2.60;;;8.10;70.70;;;8.13;58.35;101498.97;5094745;28;20048;-84
2021/04/04 09:08:41;;;;;;;7.55;2.40;;;8.10;70.90;;;8.15;58.34;101491.56;5096565;28;20545;-83
2021/04/04 09:11:11;;;;;;;12.70;2.72;;;8.20;70.30;;;8.13;58.28;101501.69;5095691;28;20760;-83
2021/04/04 09:13:39;;;;;;;5.68;1.92;;;8.20;70.60;;;8.14;58.00;101489.81;5095475;28;20059;-83
2021/04/04 09:16:12;;;;;;;9.32;2.50;;;8.20;70.60;;;8.16;58.07;101498.66;5095310;28;20048;-84
2021/04/04 09:18:50;;;;;;;10.15;2.67;;;8.20;70.00;;;8.16;58.61;101490.53;5095224;28;20050;-83
2021/04/04 09:21:18;;;;;;;9.20;3.05;;;8.20;70.90;;;8.16;58.80;101482.41;5094241;28;20040;-83
2021/04/04 09:23:47;;;;;;;8.73;2.70;;;8.30;71.00;;;8.21;58.57;101485.53;5095217;28;20075;-83
2021/04/04 09:26:18;;;;;;;8.23;2.45;;;8.30;70.90;;;8.20;58.76;101478.41;5095100;28;20044;-83
2021/04/04 09:28:45;;;;;;;;;;;8.30;70.90;;;8.25;58.65;101480.69;5094712;28;20040;-83
2021/04/04 09:31:20;;;;;;;9.00;2.90;;;8.40;70.00;;;8.27;58.37;101484.09;5094331;28;19948;-83
2021/04/04 09:33:59;;;;;;;7.45;2.85;;;8.40;70.00;;;8.25;58.98;101485.25;5093160;28;20051;-83
2021/04/04 09:36:40;;;;;;;13.68;3.70;;;8.50;70.30;;;8.26;59.15;101476.09;5095127;28;20052;-84
2021/04/04 09:39:09;;;;;;;10.07;3.70;;;8.50;70.60;;;8.28;59.08;101479.53;5094783;28;20040;-83
2021/04/04 09:41:38;;;;;;;10.98;3.15;;;8.50;70.50;;;8.29;58.50;101484.81;5093048;28;20105;-83
2021/04/04 09:44:08;;;;;;;8.80;3.22;;;8.50;70.00;;;8.18;58.93;101479.56;5094046;28;20044;-83
2021/04/04 09:46:51;;;;;;;9.82;4.18;;;8.60;69.80;;;8.22;59.08;101475.53;5094676;28;20048;-83
2021/04/04 09:49:40;;;;;;;11.00;4.30;;;8.60;70.60;;;8.28;58.90;101464.13;5094857;28;20063;-83
2021/04/04 09:52:19;;;;;;;12.98;4.00;;;8.60;70.00;;;8.28;59.71;101469.56;5094182;28;20040;-83
2021/04/04 09:55:04;;;;;;;11.20;3.63;;;8.70;70.20;;;8.31;59.12;101471.13;5094534;28;20047;-83
2021/04/04 09:57:38;;;;;;;12.60;3.67;;;8.70;70.00;;;8.37;59.08;101467.81;5094707;28;20126;-84
2021/04/04 10:00:20;;;;;;;12.30;3.50;;;8.70;70.20;;;8.38;58.91;101464.94;5094509;28;20058;-83
2021/04/04 10:02:49;;;;;;;12.20;4.63;;;8.70;70.10;;;8.40;58.96;101462.09;5094086;28;20051;-84
2021/04/04 10:05:36;;;;;;;7.50;3.05;;;8.70;70.30;;;8.41;58.88;101455.66;5094419;28;20341;-83
2021/04/04 10:08:15;;;;;;;9.20;3.20;;;8.70;70.20;;;8.38;59.57;101464.94;5094113;28;20119;-83
2021/04/04 10:10:44;;;;;;;9.27;3.40;;;8.70;70.50;;;8.39;58.94;101460.38;5092997;28;20050;-83
2021/04/04 10:13:12;;;;;;;8.75;3.25;;;8.70;70.30;;;8.42;59.20;101460.13;5093798;28;20044;-84
2021/04/04 10:15:42;;;;;;;8.38;3.45;;;8.80;70.50;;;8.37;59.16;101451.53;5093971;28;20131;-83
2021/04/04 10:18:10;;;;;;;10.77;3.65;;;8.80;69.40;;;8.38;59.05;101454.09;5094470;28;20048;-84
2021/04/04 10:20:41;;;;;;;12.18;3.20;;;8.80;69.40;;;8.39;58.67;101444.94;5092982;28;20189;-83
2021/04/04 10:23:09;;;;;;;9.45;3.88;;;8.70;69.40;;;8.43;59.39;101453.69;5093454;28;20385;-84
2021/04/04 10:25:38;;;;;;;10.38;3.88;;;8.70;70.20;;;8.43;59.02;101450.97;5093959;28;20048;-83
2021/04/04 10:28:08;;;;;;;8.05;2.90;;;8.70;70.10;;;8.46;59.25;101449.84;5093620;28;20047;-83
2021/04/04 10:30:36;;;;;;;7.65;3.10;;;8.70;70.00;;;8.48;59.11;101443.25;5093508;28;20048;-83
2021/04/04 10:33:23;;;;;;;8.45;3.40;;;8.70;70.10;;;8.48;58.91;101437.81;5093189;28;20044;-83
2021/04/04 10:35:50;;;;;;;9.75;3.40;;;8.70;69.90;;;8.52;59.21;101439.22;5093271;28;20058;-83
2021/04/04 10:38:19;;;;;;;11.63;3.60;;;8.70;70.60;;;8.52;59.16;101436.53;5093750;28;20400;-83
2021/04/04 10:40:51;;;;;;;6.80;3.13;;;8.80;70.10;;;8.52;58.41;101428.38;5091990;28;20044;-84
2021/04/04 10:43:20;;;;;;;12.43;3.70;;;8.80;69.70;;;8.51;59.08;101423.97;5093683;28;20040;-83
2021/04/04 10:46:07;;;;;;;7.45;3.30;;;8.80;69.80;;;8.52;59.21;101428.38;5092860;28;20097;-84